createdAt,value
2022-09-30T00:02:15.181Z,99995.81
2022-09-30T00:04:48.598Z,99993.31
2022-09-30T00:07:21.172Z,99989.20
2022-09-30T00:09:53.498Z,99989.78
2022-09-30T00:12:27.522Z,99992.13
2022-09-30T00:14:59.768Z,99982.38
2022-09-30T00:17:32.053Z,99993.39
2022-09-30T00:20:05.097Z,99986.75
2022-09-30T00:22:37.081Z,99988.84
2022-09-30T00:25:09.671Z,99993.64
2022-09-30T00:27:42.195Z,99995.23
2022-09-30T00:30:14.884Z,99993.17
2022-09-30T00:32:47.118Z,100002.09
2022-09-30T00:35:22.640Z,99998.03
2022-09-30T00:37:55.381Z,99979.16
2022-09-30T00:40:28.012Z,100004.33
2022-09-30T00:43:00.589Z,100008.38
2022-09-30T00:45:34.579Z,100006.19
2022-09-30T00:48:13.284Z,100004.98
2022-09-30T00:50:48.893Z,100003.17
2022-09-30T00:53:25.156Z,99998.26
2022-09-30T00:56:02.676Z,99999.20
2022-09-30T00:58:40.870Z,100009.72
2022-09-30T01:01:15.171Z,100011.89
2022-09-30T01:03:50.864Z,100015.33
2022-09-30T01:06:25.370Z,100010.15
2022-09-30T01:08:58.678Z,100014.38
2022-09-30T01:11:31.714Z,100013.70
2022-09-30T01:14:06.732Z,100011.33
2022-09-30T01:16:56.824Z,100010.93
2022-09-30T01:19:49.041Z,99995.66
2022-09-30T01:22:41.893Z,100010.40
2022-09-30T01:25:38.920Z,100019.95
2022-09-30T01:28:55.682Z,100017.48
2022-09-30T01:31:43.359Z,100018.59
2022-09-30T01:34:25.049Z,100017.48
2022-09-30T01:37:10.687Z,100021.47
2022-09-30T01:39:53.355Z,100026.72
2022-09-30T01:42:35.310Z,100028.61
2022-09-30T01:45:14.370Z,100027.99
2022-09-30T01:47:52.204Z,100029.46
2022-09-30T01:50:29.123Z,100030.25
2022-09-30T01:53:07.637Z,100036.61
2022-09-30T01:55:47.041Z,100025.16
2022-09-30T01:58:26.744Z,100009.67
2022-09-30T02:01:03.065Z,100030.27
2022-09-30T02:03:38.776Z,100037.90
2022-09-30T02:06:17.243Z,100037.42
2022-09-30T02:08:52.871Z,100035.21
2022-09-30T02:11:27.754Z,100026.70
2022-09-30T02:14:05.215Z,100028.80
2022-09-30T02:16:41.260Z,100034.99
2022-09-30T02:19:20.640Z,100027.82
2022-09-30T02:21:57.944Z,100009.52
2022-09-30T02:24:37.159Z,100028.48
2022-09-30T02:27:25.341Z,100031.75
2022-09-30T02:30:01.733Z,100028.96
2022-09-30T02:32:40.648Z,100029.05
2022-09-30T02:35:20.048Z,100029.20
2022-09-30T02:37:55.292Z,100013.66
2022-09-30T02:40:32.856Z,100039.12
2022-09-30T02:43:08.789Z,100047.30
2022-09-30T02:45:50.480Z,100046.06
2022-09-30T02:48:32.045Z,100046.45
2022-09-30T02:51:11.662Z,100032.63
2022-09-30T02:53:52.485Z,100047.77
2022-09-30T02:56:31.311Z,100049.64
2022-09-30T02:59:04.171Z,100044.86
2022-09-30T03:01:41.948Z,100049.57
2022-09-30T03:04:20.525Z,100046.06
2022-09-30T03:06:52.809Z,100042.95
2022-09-30T03:09:29.095Z,100049.83
2022-09-30T03:12:11.640Z,100051.63
2022-09-30T03:15:05.515Z,100039.98
2022-09-30T03:17:48.529Z,100043.89
2022-09-30T03:20:36.489Z,100040.88
2022-09-30T03:23:25.347Z,100041.63
2022-09-30T03:26:03.705Z,100019.83
2022-09-30T03:28:40.146Z,100038.16
2022-09-30T03:31:18.698Z,100043.50
2022-09-30T03:33:56.782Z,100045.83
2022-09-30T03:36:38.124Z,100046.06
2022-09-30T03:39:23.937Z,100049.30
2022-09-30T03:42:02.036Z,100047.87
2022-09-30T03:44:39.734Z,100050.89
2022-09-30T03:47:16.265Z,100054.96
2022-09-30T03:49:51.677Z,100050.99
2022-09-30T03:52:26.251Z,100037.61
2022-09-30T03:55:02.232Z,100056.02
2022-09-30T03:57:34.325Z,100064.42
2022-09-30T04:00:10.733Z,100051.83
2022-09-30T04:02:43.061Z,100068.66
2022-09-30T04:05:15.392Z,100068.02
2022-09-30T04:07:48.735Z,100071.56
2022-09-30T04:10:20.886Z,100076.80
2022-09-30T04:12:55.916Z,100079.02
2022-09-30T04:15:28.679Z,100079.87
2022-09-30T04:18:01.050Z,100087.63
2022-09-30T04:20:33.929Z,100090.73
2022-09-30T04:23:06.050Z,100068.08
2022-09-30T04:25:38.622Z,100085.05
2022-09-30T04:28:11.254Z,100067.69
2022-09-30T04:30:45.254Z,100085.58
2022-09-30T04:33:16.977Z,100083.11
2022-09-30T04:35:49.777Z,100089.20
2022-09-30T04:38:21.735Z,100091.95
2022-09-30T04:40:55.918Z,100085.42
2022-09-30T04:43:28.466Z,100074.80
2022-09-30T04:46:01.553Z,100083.51
2022-09-30T04:48:34.124Z,100088.76
2022-09-30T04:51:06.513Z,100099.58
2022-09-30T04:53:38.504Z,100108.77
2022-09-30T04:56:11.680Z,100109.89
2022-09-30T04:58:44.287Z,100109.95
2022-09-30T05:01:19.169Z,100113.27
2022-09-30T05:03:51.742Z,100114.93
2022-09-30T05:06:23.750Z,100110.36
2022-09-30T05:08:56.079Z,100116.54
2022-09-30T05:11:28.178Z,100116.35
2022-09-30T05:14:00.137Z,100115.77
2022-09-30T05:16:32.332Z,100116.62
2022-09-30T05:19:04.911Z,100107.37
2022-09-30T05:21:37.029Z,100129.72
2022-09-30T05:24:09.012Z,100129.96
2022-09-30T05:26:41.549Z,100132.25
2022-09-30T05:29:14.178Z,100133.52
2022-09-30T05:31:47.520Z,100136.62
2022-09-30T05:34:21.382Z,100135.34
2022-09-30T05:36:53.525Z,100136.20
2022-09-30T05:39:25.921Z,100145.91
2022-09-30T05:42:00.636Z,100144.17
2022-09-30T05:44:33.088Z,100150.92
2022-09-30T05:47:05.823Z,100153.55
2022-09-30T05:49:40.277Z,100154.78
2022-09-30T05:52:15.150Z,100156.20
2022-09-30T05:54:47.541Z,100157.32
2022-09-30T05:57:21.273Z,100152.90
2022-09-30T05:59:53.897Z,100144.52
2022-09-30T06:02:26.287Z,100162.48
2022-09-30T06:04:58.439Z,100169.56
2022-09-30T06:07:30.642Z,100169.02
2022-09-30T06:10:02.811Z,100174.35
2022-09-30T06:12:36.333Z,100179.56
2022-09-30T06:15:10.767Z,100185.30
2022-09-30T06:17:43.876Z,100184.33
2022-09-30T06:20:17.277Z,100191.05
2022-09-30T06:22:49.885Z,100190.91
2022-09-30T06:25:22.637Z,100195.08
2022-09-30T06:27:54.641Z,100197.96
2022-09-30T06:30:29.516Z,100202.35
2022-09-30T06:33:03.756Z,100205.74
2022-09-30T06:35:37.728Z,100209.12
2022-09-30T06:38:09.802Z,100215.53
2022-09-30T06:40:43.040Z,100215.00
2022-09-30T06:43:15.628Z,100217.36
2022-09-30T06:45:51.835Z,100204.35
2022-09-30T06:48:36.051Z,100216.27
2022-09-30T06:51:11.131Z,100217.11
2022-09-30T06:53:43.368Z,100220.44
2022-09-30T06:56:18.320Z,100223.83
2022-09-30T06:58:50.280Z,100220.70
2022-09-30T07:01:25.138Z,100210.16
2022-09-30T07:03:58.151Z,100222.36
2022-09-30T07:06:31.354Z,100222.50
2022-09-30T07:09:03.384Z,100226.84
2022-09-30T07:11:36.717Z,100230.30
2022-09-30T07:14:10.336Z,100228.19
2022-09-30T07:16:44.759Z,100231.50
2022-09-30T07:19:17.930Z,100228.92
2022-09-30T07:21:50.954Z,100238.92
2022-09-30T07:24:22.988Z,100244.17
2022-09-30T07:26:55.429Z,100243.49
2022-09-30T07:29:27.873Z,100246.16
2022-09-30T07:32:04.588Z,100253.47
2022-09-30T07:34:37.863Z,100257.75
2022-09-30T07:37:09.807Z,100256.40
2022-09-30T07:39:42.246Z,100258.13
2022-09-30T07:42:17.891Z,100258.99
2022-09-30T07:44:54.552Z,100261.55
2022-09-30T07:47:26.834Z,100258.27
2022-09-30T07:50:00.053Z,100258.83
2022-09-30T07:52:32.692Z,100262.86
2022-09-30T07:55:05.071Z,100265.08
2022-09-30T07:57:37.501Z,100241.88
2022-09-30T08:00:37.387Z,100266.16
2022-09-30T08:03:03.319Z,100268.50
2022-09-30T08:05:42.195Z,100272.01
2022-09-30T08:08:14.988Z,100278.27
2022-09-30T08:11:09.250Z,100284.48
2022-09-30T08:13:41.711Z,100271.48
2022-09-30T08:17:06.260Z,100293.79
2022-09-30T08:19:26.191Z,100292.91
2022-09-30T08:21:58.797Z,100292.84
2022-09-30T08:24:31.371Z,100293.02
2022-09-30T08:27:04.180Z,100294.06
2022-09-30T08:29:53.829Z,100289.27
2022-09-30T08:32:27.041Z,100302.96
2022-09-30T08:34:59.373Z,100302.20
2022-09-30T08:37:31.473Z,100306.70
2022-09-30T08:40:04.539Z,100313.50
2022-09-30T08:42:51.733Z,100311.29
2022-09-30T08:45:36.038Z,100311.84
2022-09-30T08:48:20.354Z,100301.41
2022-09-30T08:51:02.185Z,100299.13
2022-09-30T08:53:37.833Z,100296.13
2022-09-30T08:56:18.801Z,100300.39
2022-09-30T08:58:52.978Z,100293.70
2022-09-30T09:01:32.240Z,100304.22
2022-09-30T09:04:06.658Z,100299.92
2022-09-30T09:06:50.472Z,100303.95
2022-09-30T09:09:50.191Z,100293.32
2022-09-30T09:12:45.114Z,100301.80
2022-09-30T09:15:36.708Z,100308.20
2022-09-30T09:18:44.819Z,100314.38
2022-09-30T09:21:37.926Z,100315.34
2022-09-30T09:24:17.139Z,100316.00
2022-09-30T09:26:51.134Z,100312.64
2022-09-30T09:29:37.057Z,100320.25
2022-09-30T09:32:21.350Z,100319.60
2022-09-30T09:35:01.519Z,100319.98
2022-09-30T09:38:00.043Z,100323.80
2022-09-30T09:40:42.511Z,100317.65
2022-09-30T09:43:26.193Z,100320.19
2022-09-30T09:46:13.289Z,100318.98
2022-09-30T09:48:45.980Z,100315.08
2022-09-30T09:51:25.622Z,100298.05
2022-09-30T09:54:02.985Z,100313.27
2022-09-30T09:56:37.941Z,100317.70
2022-09-30T09:59:13.840Z,100322.51
2022-09-30T10:01:45.365Z,100322.16
2022-09-30T10:04:22.078Z,100323.42
2022-09-30T10:07:00.122Z,100329.79
2022-09-30T10:09:35.260Z,100327.73
2022-09-30T10:12:31.715Z,100330.89
2022-09-30T10:15:16.719Z,100329.84
2022-09-30T10:17:54.055Z,100326.48
2022-09-30T10:20:33.594Z,100331.44
2022-09-30T10:38:53.940Z,100335.58
2022-09-30T10:41:29.489Z,100337.89
2022-09-30T10:44:04.918Z,100342.36
2022-09-30T10:46:39.727Z,100340.21
2022-09-30T10:49:12.013Z,100342.28
2022-09-30T10:51:48.432Z,100345.30
2022-09-30T10:54:45.309Z,100344.20
2022-09-30T10:57:22.283Z,100339.77
2022-09-30T10:59:58.725Z,100339.90
2022-09-30T11:02:35.932Z,100333.45
2022-09-30T11:05:18.067Z,100332.71
2022-09-30T11:07:54.994Z,100335.13
2022-09-30T11:10:44.660Z,100336.81
2022-09-30T11:13:24.615Z,100334.70
2022-09-30T11:16:04.242Z,100327.88
2022-09-30T11:18:43.545Z,100327.23
2022-09-30T11:21:21.339Z,100326.67
2022-09-30T11:23:58.712Z,100323.59
2022-09-30T11:26:42.300Z,100326.26
2022-09-30T11:29:32.373Z,100325.81
2022-09-30T11:32:14.944Z,100321.21
2022-09-30T11:34:59.166Z,100318.44
2022-09-30T11:37:42.297Z,100316.45
2022-09-30T11:40:30.905Z,100313.80
2022-09-30T11:43:14.409Z,100283.98
2022-09-30T11:46:17.078Z,100315.13
2022-09-30T11:49:06.917Z,100314.33
2022-09-30T11:51:46.896Z,100315.27
2022-09-30T11:54:32.866Z,100318.97
2022-09-30T11:57:10.957Z,100311.22
2022-09-30T11:59:50.052Z,100311.16
2022-09-30T12:02:37.864Z,100312.46
2022-09-30T12:05:18.166Z,100311.71
2022-09-30T12:07:54.699Z,100312.92
2022-09-30T12:10:30.910Z,100309.52
2022-09-30T12:13:08.283Z,100308.91
2022-09-30T12:15:43.565Z,100306.52
2022-09-30T12:18:19.408Z,100307.61
2022-09-30T12:20:54.853Z,100306.95
2022-09-30T12:23:33.077Z,100306.80
2022-09-30T12:26:07.199Z,100303.46
2022-09-30T12:29:04.236Z,100308.00
2022-09-30T12:32:02.412Z,100307.30
2022-09-30T12:34:49.055Z,100295.85
2022-09-30T12:37:36.194Z,100292.77
2022-09-30T12:44:21.728Z,100305.23
2022-09-30T12:47:09.598Z,100303.99
2022-09-30T12:49:44.759Z,100306.02
2022-09-30T12:52:21.383Z,100306.73
2022-09-30T12:54:58.712Z,100293.84
2022-09-30T12:57:35.204Z,100300.36
2022-09-30T13:00:16.148Z,100303.73
2022-09-30T13:02:55.113Z,100307.30
2022-09-30T13:05:53.847Z,100295.20
2022-09-30T13:09:07.036Z,100308.45
2022-09-30T13:11:44.306Z,100305.73
2022-09-30T13:14:25.939Z,100306.92
2022-09-30T13:17:20.333Z,100311.73
2022-09-30T13:19:54.210Z,100317.15
2022-09-30T13:22:59.291Z,100316.48
2022-09-30T13:25:57.292Z,100318.55
2022-09-30T13:28:39.179Z,100316.17
2022-09-30T13:31:20.087Z,100313.67
2022-09-30T13:34:11.560Z,100311.29
2022-09-30T13:36:58.259Z,100315.21
2022-09-30T13:39:31.748Z,100318.28
2022-09-30T13:42:19.109Z,100320.49
2022-09-30T13:45:08.057Z,100319.16
2022-09-30T13:47:45.560Z,100308.32
2022-09-30T13:50:22.283Z,100313.59
2022-09-30T13:53:01.155Z,100314.21
2022-09-30T13:55:39.737Z,100319.21
2022-09-30T13:58:31.209Z,100319.91
2022-09-30T14:01:12.989Z,100318.38
2022-09-30T14:04:06.511Z,100319.66
2022-09-30T14:06:52.088Z,100318.67
2022-09-30T14:09:47.284Z,100320.80
2022-09-30T14:12:31.937Z,100324.09
2022-09-30T14:15:24.990Z,100327.02
2022-09-30T14:18:23.232Z,100326.69
2022-09-30T14:21:11.637Z,100326.48
2022-09-30T14:23:44.937Z,100328.34
2022-09-30T14:26:37.281Z,100324.43
2022-09-30T14:29:17.497Z,100324.17
2022-09-30T14:31:56.674Z,100326.91
2022-09-30T14:34:31.605Z,100323.25
2022-09-30T14:37:07.116Z,100319.98
2022-09-30T14:39:40.011Z,100318.54
2022-09-30T14:42:24.765Z,100313.48
2022-09-30T14:45:02.265Z,100316.73
2022-09-30T14:47:38.499Z,100319.11
2022-09-30T14:50:17.161Z,100322.05
2022-09-30T14:52:55.838Z,100321.75
2022-09-30T14:55:31.214Z,100317.95
2022-09-30T14:58:28.591Z,100317.02
2022-09-30T15:01:07.830Z,100319.80
2022-09-30T15:03:42.417Z,100326.41
2022-09-30T15:06:22.392Z,100328.70
2022-09-30T15:09:01.886Z,100333.71
2022-09-30T15:11:39.593Z,100322.25
2022-09-30T15:14:19.503Z,100338.60
2022-09-30T15:16:53.061Z,100341.51
2022-09-30T15:19:27.092Z,100342.17
2022-09-30T15:22:03.168Z,100343.73
2022-09-30T15:24:37.299Z,100340.93
2022-09-30T15:27:15.628Z,100340.46
2022-09-30T15:29:58.734Z,100344.08
2022-09-30T15:32:34.629Z,100350.02
2022-09-30T15:35:13.425Z,100354.29
2022-09-30T15:37:47.160Z,100357.58
2022-09-30T15:40:39.714Z,100352.30
2022-09-30T15:43:16.428Z,100356.89
2022-09-30T15:45:51.380Z,100353.91
2022-09-30T15:48:38.178Z,100358.64
2022-09-30T15:51:43.555Z,100357.52
2022-09-30T15:54:39.338Z,100350.12
2022-09-30T15:57:44.523Z,100361.25
2022-09-30T16:00:35.512Z,100359.27
2022-09-30T16:03:23.149Z,100360.88
2022-09-30T16:06:06.041Z,100362.32
2022-09-30T16:08:45.252Z,100358.64
2022-09-30T16:11:27.625Z,100361.54
2022-09-30T16:14:01.210Z,100359.39
2022-09-30T16:16:36.622Z,100365.55
2022-09-30T16:19:16.970Z,100365.70
2022-09-30T16:21:51.668Z,100357.70
2022-09-30T16:24:47.081Z,100360.02
2022-09-30T16:27:31.335Z,100364.73
2022-09-30T16:30:05.066Z,100370.02
2022-09-30T16:32:41.373Z,100371.82
2022-09-30T16:35:20.635Z,100368.98
2022-09-30T16:37:59.144Z,100377.70
2022-09-30T16:40:32.925Z,100378.18
2022-09-30T16:43:07.470Z,100378.47
2022-09-30T16:45:39.936Z,100377.81
2022-09-30T16:48:18.022Z,100381.15
2022-09-30T16:50:54.470Z,100378.65
2022-09-30T16:53:26.933Z,100388.54
2022-09-30T16:55:59.729Z,100386.59
2022-09-30T16:58:35.056Z,100385.60
2022-09-30T17:01:07.234Z,100383.34
2022-09-30T17:03:39.548Z,100376.60
2022-09-30T17:06:11.757Z,100380.80
2022-09-30T17:08:45.108Z,100376.86
2022-09-30T17:11:18.952Z,100384.02
2022-09-30T17:13:51.129Z,100385.73
2022-09-30T17:16:23.805Z,100381.79
2022-09-30T17:18:56.456Z,100377.06
2022-09-30T17:21:29.542Z,100382.54
2022-09-30T17:24:01.969Z,100378.99
2022-09-30T17:26:34.675Z,100377.06
2022-09-30T17:29:30.824Z,100380.48
2022-09-30T17:32:00.642Z,100378.84
2022-09-30T17:34:32.812Z,100373.05
2022-09-30T17:37:18.497Z,100374.86
2022-09-30T17:39:51.650Z,100375.81
2022-09-30T17:42:41.831Z,100378.52
2022-09-30T17:45:14.555Z,100383.67
2022-09-30T17:47:46.551Z,100367.11
2022-09-30T17:50:22.467Z,100394.83
2022-09-30T17:52:54.429Z,100399.04
2022-09-30T17:55:27.870Z,100400.54
2022-09-30T17:58:00.176Z,100401.24
2022-09-30T18:00:42.914Z,100401.95
2022-09-30T18:03:15.356Z,100400.82
2022-09-30T18:05:47.370Z,100402.01
2022-09-30T18:08:19.503Z,100402.52
2022-09-30T18:10:52.107Z,100397.50
2022-09-30T18:13:26.655Z,100410.06
2022-09-30T18:16:02.019Z,100413.63
2022-09-30T18:18:34.666Z,100420.23
2022-09-30T18:21:07.601Z,100415.75
2022-09-30T18:23:40.233Z,100417.33
2022-09-30T18:26:13.277Z,100416.17
2022-09-30T18:28:46.480Z,100421.76
2022-09-30T18:31:28.390Z,100416.48
2022-09-30T18:34:01.386Z,100422.99
2022-09-30T18:36:33.860Z,100420.70
2022-09-30T18:39:07.415Z,100424.14
2022-09-30T18:41:45.821Z,100422.75
2022-09-30T18:44:18.604Z,100427.26
2022-09-30T18:46:50.792Z,100425.13
2022-09-30T18:49:23.099Z,100414.62
2022-09-30T18:51:55.905Z,100431.13
2022-09-30T18:54:28.558Z,100425.60
2022-09-30T18:57:01.031Z,100424.90
2022-09-30T18:59:33.490Z,100424.09
2022-09-30T19:02:05.866Z,100417.21
2022-09-30T19:04:38.061Z,100413.55
2022-09-30T19:07:10.352Z,100410.60
2022-09-30T19:09:42.450Z,100391.77
2022-09-30T19:12:15.154Z,100407.24
2022-09-30T19:14:47.897Z,100406.33
2022-09-30T19:17:20.166Z,100408.79
2022-09-30T19:19:52.881Z,100408.23
2022-09-30T19:22:26.071Z,100407.77
2022-09-30T19:24:58.120Z,100408.74
2022-09-30T19:27:30.167Z,100410.23
2022-09-30T19:30:02.758Z,100410.82
2022-09-30T19:32:35.846Z,100404.29
2022-09-30T19:35:10.534Z,100403.66
2022-09-30T19:37:56.569Z,100403.27
2022-09-30T19:43:06.428Z,100408.30
2022-09-30T19:45:38.565Z,100409.59
2022-09-30T19:48:10.887Z,100402.55
2022-09-30T19:50:43.021Z,100399.50
2022-09-30T19:53:27.913Z,100399.18
2022-09-30T19:56:10.407Z,100401.59
2022-09-30T19:58:45.298Z,100398.79
2022-09-30T20:01:17.639Z,100396.33
2022-09-30T20:03:52.676Z,100396.38
2022-09-30T20:06:24.978Z,100392.55
2022-09-30T20:09:00.095Z,100393.98
2022-09-30T20:11:35.483Z,100395.70
2022-09-30T20:14:27.544Z,100397.29
2022-09-30T20:17:00.061Z,100397.44
2022-09-30T20:19:32.073Z,100399.17
2022-09-30T20:22:05.366Z,100400.98
2022-09-30T20:24:39.785Z,100397.13
2022-09-30T20:27:12.392Z,100398.06
2022-09-30T20:29:44.690Z,100402.42
2022-09-30T20:32:16.758Z,100393.15
2022-09-30T20:34:49.085Z,100393.99
2022-09-30T20:37:22.093Z,100390.85
2022-09-30T20:39:54.127Z,100397.52
2022-09-30T20:42:32.851Z,100395.13
2022-09-30T20:45:05.105Z,100391.94
2022-09-30T20:47:37.171Z,100392.14
2022-09-30T20:50:10.763Z,100378.70
2022-09-30T20:52:43.252Z,100392.48
2022-09-30T20:55:15.469Z,100390.95
2022-09-30T20:57:47.713Z,100390.36
2022-09-30T21:00:19.993Z,100394.58
2022-09-30T21:02:53.702Z,100389.61
2022-09-30T21:05:26.090Z,100395.02
2022-09-30T21:08:00.041Z,100392.52
2022-09-30T21:11:04.240Z,100394.86
2022-09-30T21:14:35.760Z,100394.49
2022-09-30T21:17:14.562Z,100391.57
2022-09-30T21:19:59.245Z,100394.77
2022-09-30T21:23:18.960Z,100393.48
2022-09-30T21:31:20.703Z,100390.16
2022-09-30T21:39:02.424Z,100387.65
2022-09-30T21:41:41.590Z,100388.73
2022-09-30T21:44:17.165Z,100390.03
2022-09-30T21:46:50.648Z,100394.41
2022-09-30T21:49:29.949Z,100394.67
2022-09-30T21:52:32.732Z,100394.92
2022-09-30T21:55:19.082Z,100394.63
2022-09-30T21:57:54.789Z,100397.70
2022-09-30T22:00:29.107Z,100394.67
2022-09-30T22:03:02.521Z,100395.30
2022-09-30T22:05:36.494Z,100392.75
2022-09-30T22:08:08.537Z,100392.54
2022-09-30T22:10:43.456Z,100393.24
2022-09-30T22:13:15.697Z,100379.65
2022-09-30T22:15:48.685Z,100396.88
2022-09-30T22:18:21.671Z,100395.79
2022-09-30T22:20:53.945Z,100398.58
2022-09-30T22:23:26.236Z,100398.17
2022-09-30T22:25:58.596Z,100398.02
2022-09-30T22:28:31.208Z,100395.59
2022-09-30T22:31:12.385Z,100393.57
2022-09-30T22:34:02.399Z,100394.71
2022-09-30T22:36:52.336Z,100381.53
2022-09-30T22:39:25.487Z,100365.83
2022-09-30T22:41:59.722Z,100382.52
2022-09-30T22:44:33.624Z,100379.27
2022-09-30T22:47:08.985Z,100382.61
2022-09-30T22:49:41.620Z,100377.51
2022-09-30T22:52:14.449Z,100377.71
2022-09-30T22:54:46.373Z,100378.15
2022-09-30T22:57:18.660Z,100380.61
2022-09-30T22:59:52.488Z,100379.44
2022-09-30T23:02:24.517Z,100378.86
2022-09-30T23:04:56.629Z,100374.90
2022-09-30T23:07:28.636Z,100378.55
2022-09-30T23:10:01.432Z,100371.23
2022-09-30T23:12:34.158Z,100376.62
2022-09-30T23:15:07.459Z,100377.30
2022-09-30T23:17:39.587Z,100378.80
2022-09-30T23:20:12.705Z,100376.31
2022-09-30T23:22:44.677Z,100373.09
2022-09-30T23:25:16.857Z,100376.51
2022-09-30T23:42:19.626Z,100369.75
2022-09-30T23:44:51.996Z,100365.44
2022-09-30T23:47:24.015Z,100362.05
2022-09-30T23:49:56.517Z,100368.31
2022-09-30T23:52:29.370Z,100374.02
2022-09-30T23:55:01.484Z,100340.04
2022-09-30T23:57:33.862Z,100376.14
